Time;durP1;ratioP1;P1;durP2;ratioP2;P2;SDS_P1;SDS_P2;PMS_P1;PMS_P2;Temp;Humidity;BMP_temperature;BMP_pressure;BME280_temperature;BME280_humidity;BME280_pressure;Samples;Min_cycle;Max_cycle;Signal;HPM_P1;HPM_P2
2022/02/04 00:21:40;;;;;;;39.05;29.90;;;8.60;87.80;;;;;;5090202;28;20039;-67
2022/02/04 00:24:07;;;;;;;39.08;30.25;;;8.60;87.70;;;;;;5128432;28;20019;-67
2022/02/04 00:26:45;;;;;;;41.70;31.38;;;8.60;87.70;;;;;;5129455;28;20433;-67
2022/02/04 00:29:26;;;;;;;39.28;30.40;;;8.60;87.70;;;;;;5110468;28;20063;-67
2022/02/04 00:31:57;;;;;;;40.90;30.58;;;8.60;87.60;;;;;;5113023;28;20039;-67
2022/02/04 00:34:25;;;;;;;38.10;29.77;;;8.60;87.60;;;;;;5112897;27;20441;-67
2022/02/04 00:37:07;;;;;;;44.97;32.78;;;8.60;87.50;;;;;;5133276;27;20031;-67
2022/02/04 00:39:41;;;;;;;38.60;29.83;;;8.60;87.30;;;;;;5132271;27;20577;-68
2022/02/04 00:42:10;;;;;;;41.15;31.67;;;8.60;87.40;;;;;;5132936;27;20028;-68
2022/02/04 00:44:38;;;;;;;36.20;27.83;;;8.60;87.30;;;;;;5132559;27;20035;-67
2022/02/04 00:47:11;;;;;;;38.60;29.98;;;8.60;87.30;;;;;;5133113;27;20047;-67
2022/02/04 00:52:29;;;;;;;40.10;30.17;;;8.60;87.20;;;;;;5132497;27;20067;-67
2022/02/04 00:55:19;;;;;;;39.65;28.17;;;8.60;87.10;;;;;;5132682;27;20357;-67
2022/02/04 01:27:21;;;;;;;35.97;27.45;;;8.70;86.90;;;;;;5132762;27;20046;-67
2022/02/04 01:30:00;;;;;;;38.80;29.27;;;8.70;86.80;;;;;;5112890;27;20031;-67
2022/02/04 01:32:26;;;;;;;36.75;27.83;;;8.70;86.80;;;;;;5132494;27;20139;-67
2022/02/04 01:34:52;;;;;;;38.05;29.42;;;8.70;86.80;;;;;;5112579;27;20170;-67
2022/02/04 01:37:18;;;;;;;38.03;28.90;;;8.60;86.70;;;;;;5132392;27;20034;-67
2022/02/04 01:39:43;;;;;;;36.60;27.85;;;8.70;86.80;;;;;;5131218;27;20379;-67
2022/02/04 01:42:09;;;;;;;36.65;28.17;;;8.60;86.70;;;;;;5131620;27;20041;-67
2022/02/04 01:44:35;;;;;;;33.58;26.08;;;8.60;86.80;;;;;;5131290;27;20377;-67
2022/02/04 01:47:00;;;;;;;36.08;27.90;;;8.70;86.90;;;;;;5132173;27;20042;-67
2022/02/04 01:49:28;;;;;;;37.97;28.33;;;8.70;86.80;;;;;;5130095;27;20033;-67
2022/02/04 01:51:54;;;;;;;38.17;27.95;;;8.70;86.70;;;;;;5131610;27;20039;-67
2022/02/04 01:54:21;;;;;;;31.60;24.60;;;8.60;86.70;;;;;;5131173;27;20050;-67
2022/02/04 01:56:47;;;;;;;33.22;26.52;;;8.70;86.80;;;;;;5132148;27;20023;-67
2022/02/04 01:59:13;;;;;;;32.88;26.15;;;8.60;86.70;;;;;;5130778;27;20034;-67
2022/02/04 02:01:39;;;;;;;34.30;25.52;;;8.70;86.80;;;;;;5130652;27;20095;-67
2022/02/04 02:04:07;;;;;;;31.92;25.02;;;8.70;86.70;;;;;;5130691;27;20067;-67
2022/02/04 02:06:53;;;;;;;35.05;26.65;;;8.70;86.70;;;;;;5131588;27;20479;-67
2022/02/04 02:09:23;;;;;;;32.00;24.50;;;8.70;86.60;;;;;;5130303;27;20075;-67
2022/02/04 02:11:53;;;;;;;30.42;23.63;;;8.70;86.60;;;;;;5130794;27;20084;-67
2022/02/04 02:14:21;;;;;;;32.90;25.05;;;8.70;86.60;;;;;;5111964;27;20039;-67
2022/02/04 02:49:38;;;;;;;28.05;19.80;;;8.60;86.60;;;;;;5089467;28;20082;-68
2022/02/04 03:00:05;;;;;;;22.70;18.00;;;8.60;86.70;;;;;;5075337;28;20052;-68
2022/02/04 03:02:32;;;;;;;22.98;18.42;;;8.60;86.70;;;;;;5084049;28;20034;-67
2022/02/04 03:04:58;;;;;;;24.25;18.30;;;8.60;86.70;;;;;;5089870;28;20024;-68
2022/02/04 03:07:24;;;;;;;24.98;18.52;;;8.60;86.60;;;;;;5087895;28;20095;-67
2022/02/04 03:09:49;;;;;;;26.50;18.80;;;8.60;86.40;;;;;;5074740;28;20028;-68
2022/02/04 03:12:15;;;;;;;23.30;17.58;;;8.60;86.50;;;;;;5086494;28;20416;-67
2022/02/04 03:14:41;;;;;;;22.75;18.40;;;8.60;86.50;;;;;;5086665;28;20119;-67
2022/02/04 03:17:10;;;;;;;26.77;18.20;;;8.60;86.50;;;;;;5089492;28;20020;-67
2022/02/04 03:19:37;;;;;;;25.13;18.20;;;8.60;86.50;;;;;;5088834;28;20024;-68
2022/02/04 03:22:08;;;;;;;21.05;17.02;;;8.60;86.50;;;;;;5121380;28;20047;-67
2022/02/04 03:24:34;;;;;;;22.13;16.35;;;8.60;86.50;;;;;;5095334;28;20039;-68
2022/02/04 03:27:06;;;;;;;22.45;16.23;;;8.60;86.40;;;;;;5112000;28;20027;-68
2022/02/04 03:29:45;;;;;;;20.43;15.80;;;8.60;86.40;;;;;;5119926;28;20475;-68
2022/02/04 03:32:16;;;;;;;21.10;16.08;;;8.60;86.40;;;;;;5096530;28;20812;-67
2022/02/04 03:34:42;;;;;;;20.80;15.70;;;8.60;86.50;;;;;;5129087;28;20035;-67
2022/02/04 03:37:08;;;;;;;18.75;14.70;;;8.60;86.40;;;;;;5111774;28;20016;-67
2022/02/04 03:39:36;;;;;;;21.15;14.48;;;8.60;86.40;;;;;;5111027;28;20152;-68
2022/02/04 03:42:01;;;;;;;20.75;14.90;;;8.60;86.40;;;;;;5129303;28;20023;-67
2022/02/04 03:44:27;;;;;;;20.33;15.05;;;8.60;86.30;;;;;;5129418;28;20333;-67
2022/02/04 03:46:53;;;;;;;21.48;15.05;;;8.60;86.30;;;;;;5130042;28;20023;-67
2022/02/04 03:49:18;;;;;;;18.63;15.15;;;8.60;86.20;;;;;;5129148;28;20575;-67
2022/02/04 03:51:44;;;;;;;21.10;15.60;;;8.60;86.10;;;;;;5094572;28;20046;-67
2022/02/04 03:54:10;;;;;;;19.17;13.80;;;8.60;86.10;;;;;;5129045;28;20027;-67
2022/02/04 03:56:36;;;;;;;21.75;14.60;;;8.60;86.00;;;;;;5129958;28;20487;-67
2022/02/04 03:59:02;;;;;;;18.58;13.57;;;8.60;86.00;;;;;;5129185;28;20024;-67
2022/02/04 04:01:27;;;;;;;18.70;13.40;;;8.70;86.10;;;;;;5111153;28;20122;-67
2022/02/04 04:03:53;;;;;;;19.15;13.82;;;8.70;86.10;;;;;;5128924;28;20024;-67
2022/02/04 04:06:19;;;;;;;19.25;13.27;;;8.70;86.00;;;;;;5129836;28;20038;-67
2022/02/04 04:08:44;;;;;;;17.77;13.30;;;8.70;85.90;;;;;;5129945;27;20031;-67
2022/02/04 04:11:13;;;;;;;15.77;12.50;;;8.70;85.80;;;;;;5133602;27;20074;-67
2022/02/04 04:13:38;;;;;;;17.90;12.20;;;8.70;85.90;;;;;;5132770;27;20031;-66
2022/02/04 04:16:04;;;;;;;20.23;13.52;;;8.70;85.80;;;;;;5119839;27;20030;-67
2022/02/04 04:18:30;;;;;;;17.70;12.23;;;8.70;85.70;;;;;;5131544;27;20102;-67
2022/02/04 04:20:55;;;;;;;15.60;12.70;;;8.70;85.80;;;;;;5133184;27;20051;-66
2022/02/04 04:23:21;;;;;;;17.17;12.02;;;8.70;85.80;;;;;;5133345;27;20031;-67
2022/02/04 04:25:47;;;;;;;15.48;11.85;;;8.70;85.60;;;;;;5132932;27;20019;-67
2022/02/04 04:28:12;;;;;;;16.55;11.85;;;8.70;85.60;;;;;;5132432;27;20385;-67
2022/02/04 04:30:38;;;;;;;15.30;12.23;;;8.70;85.60;;;;;;5118466;27;20456;-67
2022/02/04 04:33:04;;;;;;;15.40;11.98;;;8.70;85.40;;;;;;5113717;27;20400;-67
2022/02/04 04:35:30;;;;;;;16.40;11.45;;;8.70;85.50;;;;;;5097848;27;20027;-67
2022/02/04 04:38:13;;;;;;;16.75;11.60;;;8.70;85.50;;;;;;5114393;27;20038;-67
2022/02/04 05:29:54;;;;;;;11.68;8.48;;;8.70;84.70;;;;;;5128753;27;20502;-67
2022/02/04 05:32:19;;;;;;;11.95;8.95;;;8.70;84.70;;;;;;5131604;27;20106;-67
2022/02/04 05:34:47;;;;;;;12.90;9.63;;;8.70;84.60;;;;;;5130986;27;20035;-67
2022/02/04 05:37:14;;;;;;;10.75;8.70;;;8.70;84.30;;;;;;5131019;27;20422;-67
2022/02/04 05:39:52;;;;;;;12.82;8.50;;;8.70;84.40;;;;;;5130872;27;20138;-67
2022/02/04 05:42:23;;;;;;;13.32;8.77;;;8.70;84.50;;;;;;5113899;27;20556;-67
2022/02/04 05:44:56;;;;;;;12.07;8.57;;;8.70;84.40;;;;;;5129929;27;20473;-67
2022/02/04 05:47:22;;;;;;;12.07;8.10;;;8.70;84.30;;;;;;5131442;27;20039;-67
2022/02/04 05:50:04;;;;;;;11.25;7.88;;;8.70;84.20;;;;;;5131122;27;20403;-67
2022/02/04 05:52:38;;;;;;;10.52;7.93;;;8.70;84.30;;;;;;5113159;27;20039;-67
2022/02/04 05:55:40;;;;;;;11.38;7.53;;;8.70;84.20;;;;;;5131392;27;20019;-67
2022/02/04 05:58:13;;;;;;;8.90;7.07;;;8.70;84.30;;;;;;5128685;27;20130;-67
2022/02/04 06:00:48;;;;;;;12.63;7.57;;;8.70;84.20;;;;;;5112618;27;20023;-67
2022/02/04 06:24:13;;;;;;;7.70;5.85;;;8.70;84.00;;;;;;5130985;27;20446;-68
2022/02/04 06:26:39;;;;;;;9.35;6.07;;;8.70;83.90;;;;;;5130787;27;20031;-68
2022/02/04 06:29:05;;;;;;;7.90;6.15;;;8.70;83.90;;;;;;5130569;27;20031;-67
2022/02/04 06:31:30;;;;;;;8.25;5.88;;;8.70;83.90;;;;;;5129900;27;20035;-67
2022/02/04 06:33:56;;;;;;;10.27;6.72;;;8.70;83.90;;;;;;5130396;27;20029;-67
2022/02/04 06:36:22;;;;;;;8.25;5.80;;;8.80;83.90;;;;;;5129929;27;20487;-68
2022/02/04 06:38:47;;;;;;;7.22;6.00;;;8.80;83.70;;;;;;5111922;27;20038;-67
2022/02/04 06:41:13;;;;;;;10.25;6.65;;;8.80;83.60;;;;;;5130677;27;20027;-67
2022/02/04 06:43:39;;;;;;;8.00;5.93;;;8.80;83.70;;;;;;5130456;27;20035;-68
2022/02/04 06:46:05;;;;;;;10.52;5.90;;;8.80;83.60;;;;;;5129042;27;20384;-67
2022/02/04 06:48:30;;;;;;;7.80;6.22;;;8.70;83.60;;;;;;5125659;27;20039;-68
2022/02/04 06:50:56;;;;;;;6.85;5.32;;;8.80;83.70;;;;;;5128445;27;20110;-67
2022/02/04 06:53:23;;;;;;;12.15;5.85;;;8.70;83.70;;;;;;5129575;27;20015;-68
2022/02/04 06:55:48;;;;;;;7.40;5.45;;;8.80;83.60;;;;;;5130109;27;20046;-67
2022/02/04 06:58:15;;;;;;;7.88;5.10;;;8.80;83.70;;;;;;5129582;27;20020;-67
2022/02/04 07:00:41;;;;;;;7.18;5.47;;;8.80;83.60;;;;;;5130686;27;20035;-67
2022/02/04 07:03:07;;;;;;;6.63;5.40;;;8.80;83.60;;;;;;5111227;27;20023;-67
2022/02/04 07:05:41;;;;;;;8.52;5.65;;;8.80;83.50;;;;;;5130517;27;20035;-67
2022/02/04 07:08:17;;;;;;;8.40;4.85;;;8.80;83.40;;;;;;5129881;27;20491;-67
2022/02/04 07:13:29;;;;;;;5.30;4.80;;;8.80;83.50;;;;;;5130539;27;20062;-67
2022/02/04 07:16:09;;;;;;;7.68;5.20;;;8.80;83.50;;;;;;5130431;27;20019;-68
2022/02/04 07:21:19;;;;;;;7.75;5.53;;;8.80;83.60;;;;;;5114889;28;20061;-67
2022/02/04 07:23:45;;;;;;;6.40;4.80;;;8.80;83.60;;;;;;5129920;27;20031;-68
2022/02/04 07:26:10;;;;;;;7.38;5.40;;;8.80;83.60;;;;;;5130372;28;20031;-68
2022/02/04 07:28:36;;;;;;;7.72;5.97;;;8.80;83.60;;;;;;5111106;28;20104;-67
2022/02/04 07:31:04;;;;;;;8.60;6.07;;;8.80;83.60;;;;;;5129273;28;20067;-67
2022/02/04 07:33:48;;;;;;;7.13;6.05;;;8.80;83.60;;;;;;5094963;28;20034;-68
2022/02/04 07:41:45;;;;;;;7.40;6.00;;;8.80;84.00;;;;;;5129524;28;20061;-67
2022/02/04 07:44:12;;;;;;;6.30;5.50;;;8.80;84.10;;;;;;5114404;27;20524;-67
2022/02/04 07:46:38;;;;;;;8.10;5.78;;;8.80;84.20;;;;;;5133985;27;20098;-67
2022/02/04 07:49:03;;;;;;;6.57;5.60;;;8.80;84.30;;;;;;5114439;27;20043;-67
2022/02/04 07:51:29;;;;;;;7.53;5.63;;;8.80;84.30;;;;;;5134275;27;20093;-68
2022/02/04 07:53:56;;;;;;;8.73;5.50;;;8.80;84.30;;;;;;5132909;27;20079;-67
2022/02/04 07:56:23;;;;;;;5.57;4.95;;;8.80;84.30;;;;;;5132211;27;20555;-67
2022/02/04 07:58:57;;;;;;;7.20;4.85;;;8.90;84.40;;;;;;5133214;27;20023;-67
2022/02/04 08:01:28;;;;;;;7.22;5.05;;;8.80;84.40;;;;;;5133640;27;20109;-67
2022/02/04 08:04:02;;;;;;;6.07;4.72;;;8.80;84.50;;;;;;5133794;27;20023;-68
2022/02/04 08:06:31;;;;;;;7.22;5.15;;;8.80;84.60;;;;;;5132554;27;20019;-67
2022/02/04 08:11:59;;;;;;;5.68;5.07;;;8.80;84.60;;;;;;5133724;27;20118;-67
2022/02/04 08:29:47;;;;;;;9.20;6.10;;;8.80;85.30;;;;;;5132457;27;20403;-67
2022/02/04 08:55:59;;;;;;;9.35;6.78;;;8.80;85.60;;;;;;5132101;27;20031;-65
2022/02/04 09:01:06;;;;;;;7.60;6.15;;;8.80;85.60;;;;;;5132149;27;20035;-65
2022/02/04 09:06:14;;;;;;;7.80;6.47;;;8.90;85.70;;;;;;5100260;27;20135;-65
2022/02/04 09:08:44;;;;;;;9.20;6.68;;;8.90;85.70;;;;;;5122699;27;20114;-65
2022/02/04 09:11:15;;;;;;;7.70;6.90;;;8.90;85.70;;;;;;5126277;27;20027;-65
2022/02/04 09:19:14;;;;;;;11.02;7.38;;;8.90;85.60;;;;;;5126875;27;20448;-65
2022/02/04 09:24:16;;;;;;;9.30;7.50;;;9.00;85.50;;;;;;5127571;27;20109;-65
2022/02/04 09:26:43;;;;;;;7.82;7.13;;;9.00;85.50;;;;;;5125119;27;20031;-65
2022/02/04 09:29:09;;;;;;;9.20;6.47;;;9.00;85.60;;;;;;5116023;27;20500;-65
2022/02/04 09:31:36;;;;;;;8.30;7.38;;;9.00;85.70;;;;;;5105614;27;20373;-65
2022/02/04 09:34:06;;;;;;;9.38;7.07;;;9.00;85.60;;;;;;5130291;27;20077;-65
2022/02/04 09:36:32;;;;;;;8.35;7.45;;;9.00;85.60;;;;;;5130703;27;20879;-65
2022/02/04 09:38:59;;;;;;;8.00;6.90;;;9.00;86.00;;;;;;5112235;27;20429;-65
2022/02/04 09:41:26;;;;;;;8.18;6.75;;;9.10;86.40;;;;;;5131255;27;20038;-65
2022/02/04 09:43:52;;;;;;;7.93;6.85;;;9.10;86.80;;;;;;5131108;27;20555;-65
2022/02/04 09:46:19;;;;;;;7.18;6.35;;;9.00;87.00;;;;;;5108451;27;20086;-65
2022/02/04 09:48:49;;;;;;;8.75;6.82;;;9.10;87.20;;;;;;5110700;27;20083;-65
2022/02/04 09:51:18;;;;;;;9.27;7.47;;;9.10;87.50;;;;;;5129240;27;20504;-66
2022/02/04 10:08:19;;;;;;;7.80;7.00;;;9.00;87.80;;;;;;5059882;28;20393;-65
2022/02/04 10:20:53;;;;;;;;;;;9.00;87.40;;;;;;5119513;27;20047;-66
2022/02/04 10:23:19;;;;;;;9.43;7.65;;;9.10;87.50;;;;;;5122350;27;20454;-65
2022/02/04 10:25:45;;;;;;;8.93;8.02;;;9.00;87.50;;;;;;5120340;27;20136;-66
2022/02/04 10:28:31;;;;;;;10.40;7.20;;;9.10;87.60;;;;;;5136726;27;20027;-66
2022/02/04 10:31:14;;;;;;;8.15;7.25;;;9.10;87.40;;;;;;5131884;27;20067;-66
2022/02/04 10:34:01;;;;;;;7.28;5.93;;;9.10;87.30;;;;;;5123439;27;20030;-65
2022/02/04 10:36:56;;;;;;;6.47;5.88;;;9.20;87.10;;;;;;5117501;27;20384;-65
2022/02/04 10:48:05;;;;;;;5.57;3.80;;;9.30;86.80;;;;;;5124604;27;20061;-65
2022/02/04 10:58:56;;;;;;;4.65;4.10;;;9.40;86.20;;;;;;5124725;27;20132;-66
2022/02/04 11:02:11;;;;;;;4.60;3.72;;;9.50;85.90;;;;;;5123122;27;20039;-65
2022/02/04 11:34:06;;;;;;;4.25;3.83;;;9.60;84.70;;;;;;5128733;28;20031;-66
2022/02/04 11:36:41;;;;;;;4.55;4.10;;;9.60;84.40;;;;;;5129582;27;20103;-66
2022/02/04 11:51:40;;;;;;;4.28;3.88;;;9.70;83.50;;;;;;5025590;28;20508;-66
2022/02/04 11:57:04;;;;;;;5.90;4.25;;;9.70;82.90;;;;;;5122718;28;20459;-65
2022/02/04 11:59:36;;;;;;;4.35;3.95;;;9.70;82.90;;;;;;5120129;28;20023;-65
2022/02/04 12:02:30;;;;;;;5.53;4.00;;;9.70;83.00;;;;;;5135392;27;20035;-66
2022/02/04 12:07:35;;;;;;;4.72;3.72;;;9.80;82.30;;;;;;5123364;28;20031;-66
2022/02/04 12:10:22;;;;;;;3.90;3.50;;;9.80;82.00;;;;;;5123407;28;20031;-66
2022/02/04 12:13:05;;;;;;;4.50;3.38;;;9.80;81.60;;;;;;5122333;27;20046;-65
2022/02/04 12:15:37;;;;;;;4.55;4.00;;;9.80;82.10;;;;;;5108800;28;20031;-66
2022/02/04 12:18:07;;;;;;;5.10;3.72;;;9.80;81.50;;;;;;5127358;28;20483;-66
2022/02/04 12:20:53;;;;;;;6.30;3.55;;;9.80;81.60;;;;;;5125252;27;20114;-66
2022/02/04 12:23:41;;;;;;;3.60;3.13;;;9.80;81.60;;;;;;5128720;28;20035;-66
2022/02/04 12:26:10;;;;;;;4.93;3.70;;;9.90;81.80;;;;;;5128671;28;20027;-66
2022/02/04 12:28:44;;;;;;;4.68;3.65;;;9.80;81.50;;;;;;5109472;27;20476;-66
2022/02/04 12:31:26;;;;;;;4.05;3.35;;;9.90;81.40;;;;;;5130064;27;20031;-66
2022/02/04 12:33:57;;;;;;;3.67;3.20;;;9.90;81.10;;;;;;5130345;27;20695;-66
2022/02/04 12:36:23;;;;;;;3.35;2.88;;;9.90;80.80;;;;;;5132227;27;20515;-66
2022/02/04 12:38:50;;;;;;;3.63;3.28;;;9.90;80.70;;;;;;5110764;27;20110;-66
2022/02/04 12:41:26;;;;;;;4.55;3.28;;;9.90;80.80;;;;;;5136764;27;20052;-65
2022/02/04 12:43:55;;;;;;;4.13;3.38;;;9.90;80.80;;;;;;5152717;27;20493;-66
2022/02/04 12:46:22;;;;;;;4.30;2.97;;;9.90;80.10;;;;;;5133632;27;20025;-66
2022/02/04 12:49:04;;;;;;;5.22;3.70;;;9.80;80.20;;;;;;5130352;27;20347;-66
2022/02/04 12:51:44;;;;;;;4.80;3.30;;;9.80;80.20;;;;;;5132573;27;20386;-66
2022/02/04 12:54:11;;;;;;;4.03;3.28;;;9.80;80.20;;;;;;5114187;27;20067;-65
2022/02/04 12:56:43;;;;;;;4.57;3.55;;;9.80;80.50;;;;;;5131520;27;20091;-65
2022/02/04 13:02:47;;;;;;;4.95;3.63;;;9.80;80.40;;;;;;5132645;27;20039;-66
2022/02/04 13:07:46;;;;;;;5.30;3.70;;;9.70;80.10;;;;;;5128872;27;20474;-66
2022/02/04 13:10:23;;;;;;;3.83;3.35;;;9.70;79.90;;;;;;5107470;27;20518;-66
2022/02/04 13:12:57;;;;;;;3.25;2.90;;;9.70;79.50;;;;;;5111903;27;20084;-66
2022/02/04 13:15:23;;;;;;;3.88;3.10;;;9.70;79.00;;;;;;5126055;27;20717;-66
2022/02/04 13:17:50;;;;;;;5.63;3.42;;;9.70;79.00;;;;;;5111339;27;20035;-66
2022/02/04 13:20:21;;;;;;;4.32;2.80;;;9.70;79.00;;;;;;5124979;27;20039;-66
2022/02/04 13:22:50;;;;;;;7.05;2.88;;;9.70;79.10;;;;;;5107927;27;20445;-66
2022/02/04 13:25:22;;;;;;;3.45;3.00;;;9.70;79.00;;;;;;5117992;27;20533;-66
2022/02/04 13:28:11;;;;;;;4.20;3.20;;;9.70;78.40;;;;;;5126005;27;20484;-66
2022/02/04 13:30:41;;;;;;;4.20;3.22;;;9.70;78.60;;;;;;5110330;28;20026;-66
2022/02/04 13:33:19;;;;;;;4.43;2.90;;;9.70;78.70;;;;;;5101721;27;20106;-66
2022/02/04 13:50:07;;;;;;;4.82;3.17;;;9.60;80.30;;;;;;5130242;27;20038;-65
2022/02/04 13:55:25;;;;;;;3.97;3.55;;;9.50;80.70;;;;;;5130796;27;19950;-66
2022/02/04 14:03:16;;;;;;;5.03;4.22;;;9.40;82.30;;;;;;5130168;27;20031;-65
2022/02/04 14:05:51;;;;;;;5.30;4.15;;;9.30;82.70;;;;;;5131221;27;20415;-65
2022/02/04 14:08:28;;;;;;;6.13;5.00;;;9.30;83.00;;;;;;5112685;27;20023;-65
2022/02/04 14:10:57;;;;;;;7.05;4.75;;;9.30;83.40;;;;;;5126874;27;20039;-65
2022/02/04 14:13:28;;;;;;;5.95;4.25;;;9.30;83.60;;;;;;5122534;27;20517;-65
2022/02/04 14:15:59;;;;;;;7.63;5.00;;;9.30;83.90;;;;;;5130862;27;20097;-66
2022/02/04 14:18:28;;;;;;;6.07;4.53;;;9.30;84.00;;;;;;5126526;27;20023;-66
2022/02/04 14:20:54;;;;;;;6.10;4.95;;;9.20;84.10;;;;;;5119898;27;20032;-66
2022/02/04 14:23:20;;;;;;;8.88;5.68;;;9.20;84.30;;;;;;5108263;28;20047;-66
2022/02/04 14:26:02;;;;;;;6.72;5.35;;;9.20;84.50;;;;;;5109889;28;20034;-66
2022/02/04 14:31:27;;;;;;;7.65;5.30;;;9.20;85.00;;;;;;5109234;28;20556;-65
2022/02/04 14:36:42;;;;;;;8.35;5.82;;;9.10;85.30;;;;;;5102422;28;20092;-65
2022/02/04 14:53:03;;;;;;;8.75;5.30;;;9.00;86.40;;;;;;5096246;28;20032;-64
2022/02/04 15:06:04;;;;;;;2.05;0.90;;;8.60;82.90;;;;;;5097375;28;20113;-65
2022/02/04 15:08:34;;;;;;;1.40;0.60;;;8.40;82.50;;;;;;5095377;28;20032;-65
2022/02/04 15:11:02;;;;;;;1.25;0.40;;;8.30;81.90;;;;;;5091378;28;20054;-65
2022/02/04 15:13:31;;;;;;;1.45;0.22;;;8.20;81.10;;;;;;5093163;28;20015;-65
2022/02/04 15:15:59;;;;;;;0.80;0.40;;;8.10;80.60;;;;;;5086995;28;20625;-65
2022/02/04 15:18:25;;;;;;;0.20;0.20;;;7.90;80.60;;;;;;5089051;28;20061;-65
2022/02/04 15:20:57;;;;;;;1.40;0.40;;;7.70;80.10;;;;;;5097941;27;20042;-65
2022/02/04 15:23:24;;;;;;;0.30;0.20;;;7.60;80.30;;;;;;5110400;28;20052;-65
2022/02/04 15:25:54;;;;;;;0.55;0.28;;;7.50;80.30;;;;;;5091971;28;20465;-65
2022/02/04 15:31:06;;;;;;;1.38;0.28;;;7.30;79.70;;;;;;5121341;28;20030;-64
2022/02/04 15:33:35;;;;;;;0.22;0.22;;;7.20;79.40;;;;;;5101453;28;20395;-64
2022/02/04 15:36:02;;;;;;;0.40;0.40;;;7.10;79.70;;;;;;5118401;28;20019;-65
2022/02/04 15:38:27;;;;;;;1.33;0.60;;;7.10;80.50;;;;;;5106108;28;20429;-65
2022/02/04 15:40:53;;;;;;;0.75;0.70;;;7.00;80.00;;;;;;5113794;28;20027;-65
2022/02/04 15:43:19;;;;;;;1.02;0.80;;;7.00;80.10;;;;;;5116494;28;20035;-64
2022/02/04 15:48:41;;;;;;;0.70;0.57;;;7.00;80.70;;;;;;5117515;28;20088;-64
2022/02/04 15:59:22;;;;;;;1.98;0.60;;;6.90;81.50;;;;;;5081557;28;20576;-64
2022/02/04 16:06:47;;;;;;;0.60;0.60;;;6.70;82.00;;;;;;5112059;28;20027;-65
2022/02/04 16:09:13;;;;;;;2.50;0.70;;;6.70;82.20;;;;;;5098106;28;20035;-65
2022/02/04 16:14:47;;;;;;;0.60;0.60;;;6.60;82.60;;;;;;5064907;27;20521;-65
2022/02/04 16:17:20;;;;;;;1.92;0.80;;;6.60;82.70;;;;;;5115320;27;20400;-65
2022/02/04 16:19:54;;;;;;;2.35;1.00;;;6.60;82.70;;;;;;5113273;27;20529;-65
2022/02/04 16:22:32;;;;;;;1.45;0.63;;;6.60;82.80;;;;;;5118101;27;20086;-65
2022/02/04 16:29:59;;;;;;;0.60;0.60;;;6.60;82.90;;;;;;5103942;27;20031;-64
2022/02/04 16:32:27;;;;;;;2.05;1.05;;;6.60;82.90;;;;;;5100197;28;20019;-65
2022/02/04 16:34:56;;;;;;;1.10;0.60;;;6.60;83.00;;;;;;5131281;27;20035;-65
2022/02/04 16:37:30;;;;;;;1.05;0.60;;;6.60;83.10;;;;;;5133186;27;20344;-65
2022/02/04 16:39:57;;;;;;;1.20;0.70;;;6.60;83.10;;;;;;5126490;27;20023;-65
2022/02/04 16:42:23;;;;;;;1.17;0.60;;;6.60;83.00;;;;;;5107509;27;20319;-65
2022/02/04 16:44:49;;;;;;;0.60;0.60;;;6.60;82.90;;;;;;5121202;27;20380;-65
2022/02/04 16:47:15;;;;;;;1.27;0.80;;;6.50;83.20;;;;;;5112301;27;20080;-65
2022/02/04 16:49:41;;;;;;;0.52;0.50;;;6.50;83.40;;;;;;5116714;27;20034;-65
2022/02/04 16:52:07;;;;;;;2.42;0.70;;;6.50;83.30;;;;;;5114679;27;20043;-65
2022/02/04 16:54:37;;;;;;;0.77;0.68;;;6.40;83.00;;;;;;5111523;27;20015;-65
2022/02/04 16:57:03;;;;;;;1.48;0.50;;;6.40;83.00;;;;;;5116243;27;20067;-65
2022/02/04 16:59:30;;;;;;;1.15;0.70;;;6.40;83.10;;;;;;5079218;27;20127;-65
2022/02/04 17:01:57;;;;;;;1.25;0.88;;;6.50;83.10;;;;;;5118097;27;20049;-65
2022/02/04 17:04:24;;;;;;;1.65;0.73;;;6.50;82.80;;;;;;5110956;27;20028;-65
2022/02/04 17:06:58;;;;;;;4.47;0.70;;;6.40;82.60;;;;;;5111756;27;20484;-64
2022/02/04 17:09:29;;;;;;;0.93;0.60;;;6.40;82.80;;;;;;5096632;27;20502;-65
2022/02/04 17:12:10;;;;;;;1.05;0.40;;;6.40;82.70;;;;;;5121280;27;20076;-65
2022/02/04 17:14:37;;;;;;;2.08;0.70;;;6.40;82.80;;;;;;5111177;27;20073;-65
2022/02/04 17:17:05;;;;;;;1.13;0.80;;;6.40;82.50;;;;;;5097907;27;20024;-64
2022/02/04 17:19:38;;;;;;;3.25;0.60;;;6.30;82.70;;;;;;5113106;27;20106;-66
2022/02/04 17:22:06;;;;;;;1.38;0.57;;;6.30;82.70;;;;;;5119207;27;20507;-65
2022/02/04 17:24:32;;;;;;;2.38;0.80;;;6.30;82.70;;;;;;5124974;27;20034;-64
2022/02/04 17:26:59;;;;;;;1.85;0.68;;;6.30;82.60;;;;;;5097117;27;20031;-65
2022/02/04 17:29:28;;;;;;;2.55;1.00;;;6.30;82.50;;;;;;5118452;27;20059;-65
2022/02/04 17:31:54;;;;;;;1.63;0.90;;;6.30;82.60;;;;;;5125423;27;20130;-65
2022/02/04 17:34:20;;;;;;;1.20;1.00;;;6.30;82.70;;;;;;5120555;27;20031;-64
2022/02/04 17:36:46;;;;;;;3.42;1.20;;;6.30;82.60;;;;;;5113529;27;20035;-65
2022/02/04 17:39:23;;;;;;;3.10;1.60;;;6.40;82.40;;;;;;5109888;27;20371;-65
2022/02/04 17:41:51;;;;;;;3.08;1.30;;;6.30;82.90;;;;;;5129795;27;20039;-65
2022/02/04 17:44:18;;;;;;;2.10;1.23;;;6.30;82.20;;;;;;5114332;27;20040;-65
2022/02/04 17:46:46;;;;;;;8.07;2.53;;;6.20;81.90;;;;;;5102442;27;20041;-64
2022/02/04 17:49:21;;;;;;;3.15;1.30;;;6.10;82.00;;;;;;5130112;27;20437;-65
2022/02/04 17:51:53;;;;;;;3.38;1.48;;;6.10;82.00;;;;;;5128060;27;20023;-65
2022/02/04 17:54:28;;;;;;;5.95;1.50;;;6.00;82.00;;;;;;5124450;27;20028;-65
2022/02/04 17:59:51;;;;;;;2.03;1.35;;;6.00;82.30;;;;;;5115840;27;20467;-65
2022/02/04 18:07:32;;;;;;;4.38;1.50;;;5.90;82.70;;;;;;5092978;27;20352;-65
2022/02/04 18:09:58;;;;;;;2.72;1.30;;;5.90;82.70;;;;;;5119448;27;20069;-65
2022/02/04 18:12:31;;;;;;;4.45;1.70;;;5.90;82.70;;;;;;5110505;27;20034;-65
2022/02/04 18:14:57;;;;;;;4.95;1.42;;;5.90;82.80;;;;;;5123614;27;20019;-65
2022/02/04 18:17:22;;;;;;;4.22;1.70;;;5.80;83.00;;;;;;5107347;27;20027;-65
2022/02/04 18:19:48;;;;;;;5.05;1.98;;;5.80;83.20;;;;;;5120583;27;20038;-65
2022/02/04 18:22:15;;;;;;;5.22;1.67;;;5.70;83.40;;;;;;5121769;27;20462;-65
2022/02/04 18:24:40;;;;;;;8.10;1.83;;;5.80;83.40;;;;;;5122345;27;20037;-65
2022/02/04 18:27:08;;;;;;;7.65;2.40;;;5.80;83.30;;;;;;5100684;28;20039;-65
2022/02/04 18:29:41;;;;;;;8.70;1.70;;;5.70;83.10;;;;;;5121030;27;20055;-65
2022/02/04 18:32:07;;;;;;;5.72;1.50;;;5.70;83.20;;;;;;5125816;27;20019;-65
2022/02/04 18:34:33;;;;;;;6.47;1.63;;;5.70;83.30;;;;;;5107249;27;20031;-65
2022/02/04 18:37:01;;;;;;;5.40;1.60;;;5.70;83.30;;;;;;5122723;27;20433;-68
2022/02/04 18:39:51;;;;;;;6.43;1.80;;;5.70;83.30;;;;;;5128032;27;20396;-65
2022/02/04 18:42:41;;;;;;;5.53;1.83;;;5.70;83.30;;;;;;5120138;27;20030;-65
2022/02/04 18:45:12;;;;;;;7.78;2.28;;;5.70;83.20;;;;;;5113942;27;20030;-65
2022/02/04 18:48:01;;;;;;;8.88;2.45;;;5.70;83.30;;;;;;5126636;27;20024;-65
2022/02/04 18:50:38;;;;;;;6.75;2.03;;;5.70;83.40;;;;;;5118628;27;20038;-65
2022/02/04 18:56:55;;;;;;;10.23;2.38;;;5.70;83.60;;;;;;5130429;27;20031;-65
2022/02/04 18:58:31;;;;;;;9.75;2.17;;;5.70;83.60;;;;;;5108588;27;20083;-64
2022/02/04 19:00:58;;;;;;;9.13;2.50;;;5.70;83.70;;;;;;5130830;27;20433;-65
2022/02/04 19:03:49;;;;;;;10.45;2.38;;;5.70;83.70;;;;;;5129752;27;20486;-65
2022/02/04 19:06:18;;;;;;;8.65;2.42;;;5.60;83.60;;;;;;5128913;27;20039;-65
2022/02/04 19:08:58;;;;;;;9.00;2.30;;;5.60;83.80;;;;;;5130393;27;20038;-65
2022/02/04 19:22:25;;;;;;;7.95;2.40;;;5.70;83.60;;;;;;5117499;27;20062;-65
2022/02/04 19:24:52;;;;;;;7.07;2.50;;;5.70;83.70;;;;;;5098743;28;20054;-65
2022/02/04 19:27:17;;;;;;;9.13;2.85;;;5.70;83.70;;;;;;5127378;28;20399;-66
2022/02/04 19:29:47;;;;;;;7.93;2.72;;;5.70;83.70;;;;;;5111604;27;20039;-65
2022/02/04 19:32:14;;;;;;;8.23;2.63;;;5.80;83.90;;;;;;5125418;27;20491;-65
2022/02/04 19:34:39;;;;;;;8.35;3.45;;;5.80;83.90;;;;;;5128014;27;20054;-65
2022/02/04 19:37:05;;;;;;;7.80;3.13;;;5.90;83.70;;;;;;5121928;28;20027;-65
2022/02/04 19:39:31;;;;;;;11.00;3.35;;;5.80;83.50;;;;;;5109742;27;20395;-65
2022/02/04 19:44:24;;;;;;;7.30;3.17;;;5.90;83.90;;;;;;5127656;27;20176;-65
2022/02/04 19:46:54;;;;;;;7.47;3.60;;;5.90;83.90;;;;;;5121545;27;20483;-65
2022/02/04 19:49:23;;;;;;;13.57;3.97;;;5.90;84.00;;;;;;5113180;27;20118;-65
2022/02/04 19:52:19;;;;;;;11.02;4.25;;;5.90;83.70;;;;;;5133229;27;20035;-65
2022/02/04 20:23:51;;;;;;;13.48;6.90;;;5.70;84.50;;;;;;5124513;27;20051;-65
2022/02/04 20:26:20;;;;;;;12.95;6.05;;;5.70;84.70;;;;;;5126768;27;20063;-65
2022/02/04 20:28:46;;;;;;;13.10;7.10;;;5.70;84.80;;;;;;5126691;27;20027;-66
2022/02/04 20:31:12;;;;;;;15.85;6.93;;;5.70;85.00;;;;;;5114321;27;20043;-65
2022/02/04 20:33:37;;;;;;;12.50;6.13;;;5.70;85.10;;;;;;5132346;27;20061;-65
2022/02/04 20:36:04;;;;;;;15.65;8.02;;;5.70;85.20;;;;;;5130692;27;20131;-65
2022/02/04 20:38:45;;;;;;;16.38;7.70;;;5.70;85.20;;;;;;5123433;27;20057;-65
2022/02/04 20:41:13;;;;;;;15.73;7.17;;;5.70;85.20;;;;;;5132070;27;20342;-65
2022/02/04 20:43:39;;;;;;;15.93;6.32;;;5.70;85.20;;;;;;5132639;27;20087;-65